Terminal Aerodrome Forecast
Issued by NWS Sioux Falls, SD

Home | Current Version | Previous Version | Text Only | Print | Product List | Glossary Off
Versions: 1 2 3 4 5 6 7 8 9 10 11 12 13 14 15 16 17 18 19 20

000
FTUS43 KFSD 251400 AAA
TAFFSD
TAF AMD
KFSD 251409Z 2514/2612 16014KT P6SM SCT120
     FM251700 32010KT P6SM SCT025
     FM251900 33012KT P6SM SCT040
     FM260100 35005KT P6SM SKC
     FM261000 VRB03KT P6SM BKN200=

USA.gov is the U.S. government's official web portal to all federal, state and local government web resources and services.